sensor_id;sensor_type;location;lat;lon;timestamp;temperature;humidity
44509;DHT22;30214;52.246;14.408;2023-04-06T00:01:13;2.40;99.90
44509;DHT22;30214;52.246;14.408;2023-04-06T00:03:40;2.40;99.90
44509;DHT22;30214;52.246;14.408;2023-04-06T00:06:07;2.40;99.90
44509;DHT22;30214;52.246;14.408;2023-04-06T00:08:35;2.30;99.90
44509;DHT22;30214;52.246;14.408;2023-04-06T00:11:03;2.10;99.90
44509;DHT22;30214;52.246;14.408;2023-04-06T00:13:30;1.90;99.90
44509;DHT22;30214;52.246;14.408;2023-04-06T00:15:57;1.80;99.90
44509;DHT22;30214;52.246;14.408;2023-04-06T00:18:24;1.70;99.90
44509;DHT22;30214;52.246;14.408;2023-04-06T00:20:52;1.70;99.90
44509;DHT22;30214;52.246;14.408;2023-04-06T00:23:19;1.80;99.90
44509;DHT22;30214;52.246;14.408;2023-04-06T00:25:47;1.70;99.90
44509;DHT22;30214;52.246;14.408;2023-04-06T00:28:14;1.80;99.90
44509;DHT22;30214;52.246;14.408;2023-04-06T00:30:42;1.80;99.90
44509;DHT22;30214;52.246;14.408;2023-04-06T00:33:13;1.80;99.90
44509;DHT22;30214;52.246;14.408;2023-04-06T00:35:41;1.70;99.90
44509;DHT22;30214;52.246;14.408;2023-04-06T00:38:09;1.70;99.90
44509;DHT22;30214;52.246;14.408;2023-04-06T00:40:36;1.70;99.90
44509;DHT22;30214;52.246;14.408;2023-04-06T00:43:07;1.70;99.90
44509;DHT22;30214;52.246;14.408;2023-04-06T00:45:35;1.80;99.90
44509;DHT22;30214;52.246;14.408;2023-04-06T00:48:03;1.80;99.90
44509;DHT22;30214;52.246;14.408;2023-04-06T00:50:32;1.80;99.90
44509;DHT22;30214;52.246;14.408;2023-04-06T00:53:00;1.80;99.90
44509;DHT22;30214;52.246;14.408;2023-04-06T00:55:28;1.80;99.90
44509;DHT22;30214;52.246;14.408;2023-04-06T00:57:58;1.90;99.90
44509;DHT22;30214;52.246;14.408;2023-04-06T01:00:31;1.90;99.90
44509;DHT22;30214;52.246;14.408;2023-04-06T01:15:21;1.60;99.90
44509;DHT22;30214;52.246;14.408;2023-04-06T01:17:52;1.60;99.90
44509;DHT22;30214;52.246;14.408;2023-04-06T01:20:19;1.70;99.90
44509;DHT22;30214;52.246;14.408;2023-04-06T01:22:48;1.70;99.90
44509;DHT22;30214;52.246;14.408;2023-04-06T01:25:16;1.80;99.90
44509;DHT22;30214;52.246;14.408;2023-04-06T01:28:09;1.70;99.90
44509;DHT22;30214;52.246;14.408;2023-04-06T01:30:53;1.70;99.90
44509;DHT22;30214;52.246;14.408;2023-04-06T01:33:39;1.60;99.90
44509;DHT22;30214;52.246;14.408;2023-04-06T01:36:11;1.50;99.90
44509;DHT22;30214;52.246;14.408;2023-04-06T01:38:40;1.50;99.90
44509;DHT22;30214;52.246;14.408;2023-04-06T01:41:08;1.60;99.90
44509;DHT22;30214;52.246;14.408;2023-04-06T01:43:48;1.70;99.90
44509;DHT22;30214;52.246;14.408;2023-04-06T01:46:16;1.70;99.90
44509;DHT22;30214;52.246;14.408;2023-04-06T01:48:44;1.60;99.90
44509;DHT22;30214;52.246;14.408;2023-04-06T01:51:31;1.60;99.90
44509;DHT22;30214;52.246;14.408;2023-04-06T01:54:02;1.70;99.90
44509;DHT22;30214;52.246;14.408;2023-04-06T01:56:59;1.80;99.90
44509;DHT22;30214;52.246;14.408;2023-04-06T01:59:33;1.80;99.90
44509;DHT22;30214;52.246;14.408;2023-04-06T02:02:05;1.70;99.90
44509;DHT22;30214;52.246;14.408;2023-04-06T02:04:34;1.60;99.90
44509;DHT22;30214;52.246;14.408;2023-04-06T02:07:10;1.50;99.90
44509;DHT22;30214;52.246;14.408;2023-04-06T02:09:39;1.50;99.90
44509;DHT22;30214;52.246;14.408;2023-04-06T02:12:12;1.50;99.90
44509;DHT22;30214;52.246;14.408;2023-04-06T02:14:39;1.50;99.90
44509;DHT22;30214;52.246;14.408;2023-04-06T02:17:06;1.50;99.90
44509;DHT22;30214;52.246;14.408;2023-04-06T02:19:33;1.50;99.90
44509;DHT22;30214;52.246;14.408;2023-04-06T02:22:00;1.50;99.90
44509;DHT22;30214;52.246;14.408;2023-04-06T02:24:27;1.50;99.90
44509;DHT22;30214;52.246;14.408;2023-04-06T02:26:56;1.50;99.90
44509;DHT22;30214;52.246;14.408;2023-04-06T02:29:23;1.50;99.90
44509;DHT22;30214;52.246;14.408;2023-04-06T02:31:51;1.60;99.90
44509;DHT22;30214;52.246;14.408;2023-04-06T02:34:19;1.70;99.90
44509;DHT22;30214;52.246;14.408;2023-04-06T02:36:49;1.70;99.90
44509;DHT22;30214;52.246;14.408;2023-04-06T02:39:17;1.80;99.90
44509;DHT22;30214;52.246;14.408;2023-04-06T02:41:44;1.80;99.90
44509;DHT22;30214;52.246;14.408;2023-04-06T02:44:16;1.80;99.90
44509;DHT22;30214;52.246;14.408;2023-04-06T02:46:44;1.90;99.90
44509;DHT22;30214;52.246;14.408;2023-04-06T02:49:11;1.80;99.90
44509;DHT22;30214;52.246;14.408;2023-04-06T02:51:39;1.80;99.90
44509;DHT22;30214;52.246;14.408;2023-04-06T02:54:32;1.80;99.90
44509;DHT22;30214;52.246;14.408;2023-04-06T02:57:01;1.60;99.90
44509;DHT22;30214;52.246;14.408;2023-04-06T02:59:37;1.40;99.90
44509;DHT22;30214;52.246;14.408;2023-04-06T03:02:19;1.30;99.90
44509;DHT22;30214;52.246;14.408;2023-04-06T03:04:47;1.30;99.90
44509;DHT22;30214;52.246;14.408;2023-04-06T03:07:26;1.40;99.90
44509;DHT22;30214;52.246;14.408;2023-04-06T03:09:53;1.50;99.90
44509;DHT22;30214;52.246;14.408;2023-04-06T03:12:20;1.60;99.90
44509;DHT22;30214;52.246;14.408;2023-04-06T03:15:12;1.70;99.90
44509;DHT22;30214;52.246;14.408;2023-04-06T03:17:44;1.60;99.90
44509;DHT22;30214;52.246;14.408;2023-04-06T03:20:25;1.60;99.90
44509;DHT22;30214;52.246;14.408;2023-04-06T03:22:52;1.40;99.90
44509;DHT22;30214;52.246;14.408;2023-04-06T03:25:24;1.30;99.90
44509;DHT22;30214;52.246;14.408;2023-04-06T03:27:53;1.30;99.90
44509;DHT22;30214;52.246;14.408;2023-04-06T03:30:21;1.20;99.90
44509;DHT22;30214;52.246;14.408;2023-04-06T03:32:49;1.20;99.90
44509;DHT22;30214;52.246;14.408;2023-04-06T03:35:16;1.20;99.90
44509;DHT22;30214;52.246;14.408;2023-04-06T03:37:43;1.20;99.90
44509;DHT22;30214;52.246;14.408;2023-04-06T03:40:10;1.20;99.90
44509;DHT22;30214;52.246;14.408;2023-04-06T03:42:37;1.10;99.90
44509;DHT22;30214;52.246;14.408;2023-04-06T03:45:10;1.10;99.90
44509;DHT22;30214;52.246;14.408;2023-04-06T03:47:45;1.20;99.90
44509;DHT22;30214;52.246;14.408;2023-04-06T03:50:12;1.20;99.90
44509;DHT22;30214;52.246;14.408;2023-04-06T03:52:39;1.20;99.90
44509;DHT22;30214;52.246;14.408;2023-04-06T03:55:08;1.20;99.90
44509;DHT22;30214;52.246;14.408;2023-04-06T03:57:36;1.30;99.90
44509;DHT22;30214;52.246;14.408;2023-04-06T04:00:04;1.20;99.90
44509;DHT22;30214;52.246;14.408;2023-04-06T04:02:38;1.10;99.90
44509;DHT22;30214;52.246;14.408;2023-04-06T04:05:08;1.10;99.90
44509;DHT22;30214;52.246;14.408;2023-04-06T04:07:36;1.10;99.90
44509;DHT22;30214;52.246;14.408;2023-04-06T04:10:04;1.10;99.90
44509;DHT22;30214;52.246;14.408;2023-04-06T04:12:32;1.10;99.90
44509;DHT22;30214;52.246;14.408;2023-04-06T04:15:02;1.10;99.90
44509;DHT22;30214;52.246;14.408;2023-04-06T04:17:30;1.00;99.90
44509;DHT22;30214;52.246;14.408;2023-04-06T04:19:57;0.90;99.90
44509;DHT22;30214;52.246;14.408;2023-04-06T04:22:26;0.90;99.90
44509;DHT22;30214;52.246;14.408;2023-04-06T04:24:54;0.90;99.90
44509;DHT22;30214;52.246;14.408;2023-04-06T04:27:21;0.90;99.90
44509;DHT22;30214;52.246;14.408;2023-04-06T04:29:50;0.90;99.90
44509;DHT22;30214;52.246;14.408;2023-04-06T04:32:17;0.80;99.90
44509;DHT22;30214;52.246;14.408;2023-04-06T04:34:45;0.90;99.90
44509;DHT22;30214;52.246;14.408;2023-04-06T04:37:23;0.90;99.90
44509;DHT22;30214;52.246;14.408;2023-04-06T04:39:55;0.80;99.90
44509;DHT22;30214;52.246;14.408;2023-04-06T04:42:22;0.80;99.90
44509;DHT22;30214;52.246;14.408;2023-04-06T04:44:52;0.90;99.90
44509;DHT22;30214;52.246;14.408;2023-04-06T04:47:33;0.90;99.90
44509;DHT22;30214;52.246;14.408;2023-04-06T04:50:00;0.90;99.90
44509;DHT22;30214;52.246;14.408;2023-04-06T04:52:28;0.90;99.90
44509;DHT22;30214;52.246;14.408;2023-04-06T04:55:14;0.90;99.90
44509;DHT22;30214;52.246;14.408;2023-04-06T04:57:45;0.90;99.90
44509;DHT22;30214;52.246;14.408;2023-04-06T05:00:14;0.90;99.90
44509;DHT22;30214;52.246;14.408;2023-04-06T05:02:43;0.90;99.90
44509;DHT22;30214;52.246;14.408;2023-04-06T05:05:15;0.90;99.90
44509;DHT22;30214;52.246;14.408;2023-04-06T05:07:42;0.90;99.90
44509;DHT22;30214;52.246;14.408;2023-04-06T05:10:18;0.90;99.90
44509;DHT22;30214;52.246;14.408;2023-04-06T05:12:53;0.90;99.90
44509;DHT22;30214;52.246;14.408;2023-04-06T05:15:20;0.90;99.90
44509;DHT22;30214;52.246;14.408;2023-04-06T05:17:51;0.90;99.90
44509;DHT22;30214;52.246;14.408;2023-04-06T05:20:25;1.00;99.90
44509;DHT22;30214;52.246;14.408;2023-04-06T05:22:52;1.00;99.90
44509;DHT22;30214;52.246;14.408;2023-04-06T05:25:20;1.10;99.90
44509;DHT22;30214;52.246;14.408;2023-04-06T05:27:50;1.10;99.90
44509;DHT22;30214;52.246;14.408;2023-04-06T05:30:27;1.10;99.90
44509;DHT22;30214;52.246;14.408;2023-04-06T05:32:55;1.20;99.90
44509;DHT22;30214;52.246;14.408;2023-04-06T05:35:25;1.30;99.90
44509;DHT22;30214;52.246;14.408;2023-04-06T05:37:56;1.40;99.90
44509;DHT22;30214;52.246;14.408;2023-04-06T05:40:27;1.40;99.90
44509;DHT22;30214;52.246;14.408;2023-04-06T05:42:55;1.40;99.90
44509;DHT22;30214;52.246;14.408;2023-04-06T05:45:23;1.50;99.90
44509;DHT22;30214;52.246;14.408;2023-04-06T05:47:54;1.50;99.90
44509;DHT22;30214;52.246;14.408;2023-04-06T05:50:26;1.60;99.90
44509;DHT22;30214;52.246;14.408;2023-04-06T05:52:55;1.70;99.90
44509;DHT22;30214;52.246;14.408;2023-04-06T05:55:30;1.70;99.90
44509;DHT22;30214;52.246;14.408;2023-04-06T05:58:09;1.80;99.90
44509;DHT22;30214;52.246;14.408;2023-04-06T06:00:39;1.80;99.90
44509;DHT22;30214;52.246;14.408;2023-04-06T06:03:08;1.80;99.90
44509;DHT22;30214;52.246;14.408;2023-04-06T06:05:38;1.90;99.90
44509;DHT22;30214;52.246;14.408;2023-04-06T06:08:11;2.00;99.90
44509;DHT22;30214;52.246;14.408;2023-04-06T06:10:40;2.10;99.90
44509;DHT22;30214;52.246;14.408;2023-04-06T06:13:11;2.10;99.90
44509;DHT22;30214;52.246;14.408;2023-04-06T06:15:39;2.10;99.90
44509;DHT22;30214;52.246;14.408;2023-04-06T06:18:08;2.20;99.90
44509;DHT22;30214;52.246;14.408;2023-04-06T06:20:38;2.30;99.90
44509;DHT22;30214;52.246;14.408;2023-04-06T06:23:08;2.40;99.90
44509;DHT22;30214;52.246;14.408;2023-04-06T06:25:36;2.40;99.90
44509;DHT22;30214;52.246;14.408;2023-04-06T06:28:07;2.30;99.90
44509;DHT22;30214;52.246;14.408;2023-04-06T06:30:36;2.30;99.90
44509;DHT22;30214;52.246;14.408;2023-04-06T06:33:06;2.20;99.90
44509;DHT22;30214;52.246;14.408;2023-04-06T06:35:34;2.20;99.90
44509;DHT22;30214;52.246;14.408;2023-04-06T06:38:05;2.20;99.90
44509;DHT22;30214;52.246;14.408;2023-04-06T06:40:33;2.30;99.90
44509;DHT22;30214;52.246;14.408;2023-04-06T06:43:02;2.40;99.90
44509;DHT22;30214;52.246;14.408;2023-04-06T06:45:36;2.50;99.90
44509;DHT22;30214;52.246;14.408;2023-04-06T06:48:04;2.70;99.90
44509;DHT22;30214;52.246;14.408;2023-04-06T06:50:32;3.00;99.90
44509;DHT22;30214;52.246;14.408;2023-04-06T06:53:01;3.20;99.90
44509;DHT22;30214;52.246;14.408;2023-04-06T06:55:31;3.50;99.90
44509;DHT22;30214;52.246;14.408;2023-04-06T06:57:59;3.70;99.90
44509;DHT22;30214;52.246;14.408;2023-04-06T07:00:26;3.90;99.90
44509;DHT22;30214;52.246;14.408;2023-04-06T07:02:59;4.00;99.90
44509;DHT22;30214;52.246;14.408;2023-04-06T07:05:28;4.10;99.90
44509;DHT22;30214;52.246;14.408;2023-04-06T07:07:57;4.10;99.90
44509;DHT22;30214;52.246;14.408;2023-04-06T07:10:25;4.30;99.90
44509;DHT22;30214;52.246;14.408;2023-04-06T07:12:53;4.40;99.90
44509;DHT22;30214;52.246;14.408;2023-04-06T07:15:21;4.50;99.90
44509;DHT22;30214;52.246;14.408;2023-04-06T07:17:49;4.50;99.90
44509;DHT22;30214;52.246;14.408;2023-04-06T07:20:19;4.40;99.90
44509;DHT22;30214;52.246;14.408;2023-04-06T07:22:47;4.40;99.90
44509;DHT22;30214;52.246;14.408;2023-04-06T07:25:15;4.40;99.90
44509;DHT22;30214;52.246;14.408;2023-04-06T07:27:43;4.30;99.90
44509;DHT22;30214;52.246;14.408;2023-04-06T07:30:11;4.20;99.90
44509;DHT22;30214;52.246;14.408;2023-04-06T07:32:40;4.30;99.90
44509;DHT22;30214;52.246;14.408;2023-04-06T07:35:08;4.30;99.90
44509;DHT22;30214;52.246;14.408;2023-04-06T07:37:36;4.30;99.90
44509;DHT22;30214;52.246;14.408;2023-04-06T07:40:04;4.40;99.90
44509;DHT22;30214;52.246;14.408;2023-04-06T07:42:33;4.60;99.90
44509;DHT22;30214;52.246;14.408;2023-04-06T07:45:03;4.60;99.90
44509;DHT22;30214;52.246;14.408;2023-04-06T07:47:31;4.60;99.90
44509;DHT22;30214;52.246;14.408;2023-04-06T07:49:59;4.60;99.90
44509;DHT22;30214;52.246;14.408;2023-04-06T07:52:26;4.60;99.90
44509;DHT22;30214;52.246;14.408;2023-04-06T07:54:55;4.50;99.90
44509;DHT22;30214;52.246;14.408;2023-04-06T07:57:22;4.50;99.90
44509;DHT22;30214;52.246;14.408;2023-04-06T07:59:49;4.60;99.90
44509;DHT22;30214;52.246;14.408;2023-04-06T08:02:17;4.70;99.90
44509;DHT22;30214;52.246;14.408;2023-04-06T08:04:44;4.80;99.90
44509;DHT22;30214;52.246;14.408;2023-04-06T08:07:11;4.80;99.90
44509;DHT22;30214;52.246;14.408;2023-04-06T08:09:39;4.80;99.90
44509;DHT22;30214;52.246;14.408;2023-04-06T08:12:07;4.80;99.90
44509;DHT22;30214;52.246;14.408;2023-04-06T08:14:34;4.90;99.90
44509;DHT22;30214;52.246;14.408;2023-04-06T08:17:01;5.00;99.90
44509;DHT22;30214;52.246;14.408;2023-04-06T08:19:28;5.00;99.90
44509;DHT22;30214;52.246;14.408;2023-04-06T08:21:55;5.00;99.90
44509;DHT22;30214;52.246;14.408;2023-04-06T08:24:22;5.10;99.90
44509;DHT22;30214;52.246;14.408;2023-04-06T08:26:50;5.20;99.90
44509;DHT22;30214;52.246;14.408;2023-04-06T08:29:19;5.20;99.90
44509;DHT22;30214;52.246;14.408;2023-04-06T08:31:47;5.40;99.90
44509;DHT22;30214;52.246;14.408;2023-04-06T08:34:14;5.40;99.90
44509;DHT22;30214;52.246;14.408;2023-04-06T08:36:41;5.50;99.90
44509;DHT22;30214;52.246;14.408;2023-04-06T08:39:08;5.50;99.90
44509;DHT22;30214;52.246;14.408;2023-04-06T08:41:35;5.60;99.90
44509;DHT22;30214;52.246;14.408;2023-04-06T08:44:03;5.60;99.90
44509;DHT22;30214;52.246;14.408;2023-04-06T08:46:32;5.80;99.90
44509;DHT22;30214;52.246;14.408;2023-04-06T08:49:00;5.90;99.90
44509;DHT22;30214;52.246;14.408;2023-04-06T08:51:29;6.00;99.90
44509;DHT22;30214;52.246;14.408;2023-04-06T08:53:57;6.00;99.90
44509;DHT22;30214;52.246;14.408;2023-04-06T08:56:27;6.10;99.90
44509;DHT22;30214;52.246;14.408;2023-04-06T08:58:55;6.20;99.90
44509;DHT22;30214;52.246;14.408;2023-04-06T09:01:25;6.20;99.90
44509;DHT22;30214;52.246;14.408;2023-04-06T09:03:56;6.30;99.90
44509;DHT22;30214;52.246;14.408;2023-04-06T09:06:25;6.20;99.90
44509;DHT22;30214;52.246;14.408;2023-04-06T09:08:53;6.10;99.90
44509;DHT22;30214;52.246;14.408;2023-04-06T09:11:22;6.30;99.90
44509;DHT22;30214;52.246;14.408;2023-04-06T09:13:52;6.40;99.90
44509;DHT22;30214;52.246;14.408;2023-04-06T09:16:21;6.60;99.90
44509;DHT22;30214;52.246;14.408;2023-04-06T09:18:51;6.60;99.90
44509;DHT22;30214;52.246;14.408;2023-04-06T09:21:20;6.60;99.90
44509;DHT22;30214;52.246;14.408;2023-04-06T09:23:47;6.70;98.80
44509;DHT22;30214;52.246;14.408;2023-04-06T09:26:15;6.90;99.90
44509;DHT22;30214;52.246;14.408;2023-04-06T09:28:47;6.90;96.40
44509;DHT22;30214;52.246;14.408;2023-04-06T09:31:21;6.90;97.40
44509;DHT22;30214;52.246;14.408;2023-04-06T09:33:49;7.10;95.70
44509;DHT22;30214;52.246;14.408;2023-04-06T09:36:19;7.30;95.30
44509;DHT22;30214;52.246;14.408;2023-04-06T09:38:54;7.50;94.60
44509;DHT22;30214;52.246;14.408;2023-04-06T09:41:23;7.80;92.90
44509;DHT22;30214;52.246;14.408;2023-04-06T09:44:02;7.90;92.50
44509;DHT22;30214;52.246;14.408;2023-04-06T09:46:32;7.80;90.60
44509;DHT22;30214;52.246;14.408;2023-04-06T09:49:02;7.80;88.90
44509;DHT22;30214;52.246;14.408;2023-04-06T09:51:35;7.80;89.00
44509;DHT22;30214;52.246;14.408;2023-04-06T09:54:03;7.70;89.70
44509;DHT22;30214;52.246;14.408;2023-04-06T09:56:39;7.70;90.20
44509;DHT22;30214;52.246;14.408;2023-04-06T09:59:13;7.80;90.20
44509;DHT22;30214;52.246;14.408;2023-04-06T10:01:46;7.90;86.70
44509;DHT22;30214;52.246;14.408;2023-04-06T10:04:25;7.90;83.70
44509;DHT22;30214;52.246;14.408;2023-04-06T10:07:00;7.80;89.30
44509;DHT22;30214;52.246;14.408;2023-04-06T10:09:29;7.90;88.50
44509;DHT22;30214;52.246;14.408;2023-04-06T10:12:02;7.90;81.40
44509;DHT22;30214;52.246;14.408;2023-04-06T10:14:31;7.90;81.10
44509;DHT22;30214;52.246;14.408;2023-04-06T10:17:02;7.90;81.60
44509;DHT22;30214;52.246;14.408;2023-04-06T10:19:37;7.80;81.20
44509;DHT22;30214;52.246;14.408;2023-04-06T10:22:12;7.70;83.10
44509;DHT22;30214;52.246;14.408;2023-04-06T10:24:46;7.80;83.40
44509;DHT22;30214;52.246;14.408;2023-04-06T10:27:13;8.10;82.50
44509;DHT22;30214;52.246;14.408;2023-04-06T10:29:46;8.50;80.30
44509;DHT22;30214;52.246;14.408;2023-04-06T10:32:15;8.90;80.70
44509;DHT22;30214;52.246;14.408;2023-04-06T10:34:42;9.20;75.60
44509;DHT22;30214;52.246;14.408;2023-04-06T10:37:14;9.30;71.60
44509;DHT22;30214;52.246;14.408;2023-04-06T10:39:51;9.30;69.50
44509;DHT22;30214;52.246;14.408;2023-04-06T10:42:24;9.30;69.20
44509;DHT22;30214;52.246;14.408;2023-04-06T10:44:52;9.40;73.50
44509;DHT22;30214;52.246;14.408;2023-04-06T10:47:19;9.70;70.50
44509;DHT22;30214;52.246;14.408;2023-04-06T10:49:46;10.00;71.70
44509;DHT22;30214;52.246;14.408;2023-04-06T10:52:15;10.10;73.40
44509;DHT22;30214;52.246;14.408;2023-04-06T10:54:42;10.20;64.90
44509;DHT22;30214;52.246;14.408;2023-04-06T10:57:12;10.20;63.10
44509;DHT22;30214;52.246;14.408;2023-04-06T10:59:43;10.40;64.10
44509;DHT22;30214;52.246;14.408;2023-04-06T11:02:19;10.60;61.60
44509;DHT22;30214;52.246;14.408;2023-04-06T11:04:54;10.70;60.70
44509;DHT22;30214;52.246;14.408;2023-04-06T11:07:24;10.60;63.10
44509;DHT22;30214;52.246;14.408;2023-04-06T11:09:54;10.10;62.30
44509;DHT22;30214;52.246;14.408;2023-04-06T11:12:22;9.50;57.30
44509;DHT22;30214;52.246;14.408;2023-04-06T11:14:55;9.10;58.50
44509;DHT22;30214;52.246;14.408;2023-04-06T11:17:31;9.00;59.50
44509;DHT22;30214;52.246;14.408;2023-04-06T11:20:00;9.10;59.30
44509;DHT22;30214;52.246;14.408;2023-04-06T11:22:30;9.10;58.40
44509;DHT22;30214;52.246;14.408;2023-04-06T11:25:05;9.10;52.70
44509;DHT22;30214;52.246;14.408;2023-04-06T11:27:33;9.30;55.50
44509;DHT22;30214;52.246;14.408;2023-04-06T11:30:01;9.40;54.90
44509;DHT22;30214;52.246;14.408;2023-04-06T11:32:29;9.30;56.70
44509;DHT22;30214;52.246;14.408;2023-04-06T11:34:58;9.20;62.40
44509;DHT22;30214;52.246;14.408;2023-04-06T11:37:28;9.20;64.50
44509;DHT22;30214;52.246;14.408;2023-04-06T11:39:56;9.10;66.60
44509;DHT22;30214;52.246;14.408;2023-04-06T11:42:24;8.90;65.90
44509;DHT22;30214;52.246;14.408;2023-04-06T11:44:54;8.90;67.60
44509;DHT22;30214;52.246;14.408;2023-04-06T11:47:30;9.00;66.60
44509;DHT22;30214;52.246;14.408;2023-04-06T11:50:05;9.00;67.90
44509;DHT22;30214;52.246;14.408;2023-04-06T11:52:35;9.10;68.70
44509;DHT22;30214;52.246;14.408;2023-04-06T11:55:11;9.10;65.10
44509;DHT22;30214;52.246;14.408;2023-04-06T11:57:40;9.20;65.10
44509;DHT22;30214;52.246;14.408;2023-04-06T12:00:08;9.40;62.30
44509;DHT22;30214;52.246;14.408;2023-04-06T12:02:36;9.50;62.50
44509;DHT22;30214;52.246;14.408;2023-04-06T12:05:04;9.60;62.10
44509;DHT22;30214;52.246;14.408;2023-04-06T12:07:34;9.70;60.00
44509;DHT22;30214;52.246;14.408;2023-04-06T12:10:03;9.80;61.00
44509;DHT22;30214;52.246;14.408;2023-04-06T12:12:31;9.70;58.80
44509;DHT22;30214;52.246;14.408;2023-04-06T12:14:59;9.80;61.30
44509;DHT22;30214;52.246;14.408;2023-04-06T12:17:26;9.80;59.40
44509;DHT22;30214;52.246;14.408;2023-04-06T12:19:53;9.90;56.70
44509;DHT22;30214;52.246;14.408;2023-04-06T12:22:20;9.90;56.30
44509;DHT22;30214;52.246;14.408;2023-04-06T12:24:49;9.90;54.90
44509;DHT22;30214;52.246;14.408;2023-04-06T12:27:16;9.90;52.20
44509;DHT22;30214;52.246;14.408;2023-04-06T12:29:43;10.10;57.40
44509;DHT22;30214;52.246;14.408;2023-04-06T12:32:10;10.30;54.20
44509;DHT22;30214;52.246;14.408;2023-04-06T12:34:38;10.50;51.70
44509;DHT22;30214;52.246;14.408;2023-04-06T12:37:05;10.10;49.30
44509;DHT22;30214;52.246;14.408;2023-04-06T12:39:33;9.80;50.70
44509;DHT22;30214;52.246;14.408;2023-04-06T12:42:02;9.90;53.50
44509;DHT22;30214;52.246;14.408;2023-04-06T12:44:30;10.30;56.20
44509;DHT22;30214;52.246;14.408;2023-04-06T12:46:57;10.30;58.40
44509;DHT22;30214;52.246;14.408;2023-04-06T12:49:24;10.30;60.70
44509;DHT22;30214;52.246;14.408;2023-04-06T12:51:51;9.90;59.60
44509;DHT22;30214;52.246;14.408;2023-04-06T12:54:18;10.00;61.60
44509;DHT22;30214;52.246;14.408;2023-04-06T12:56:45;10.20;63.20
44509;DHT22;30214;52.246;14.408;2023-04-06T12:59:14;9.90;60.20
44509;DHT22;30214;52.246;14.408;2023-04-06T13:01:41;9.50;59.80
44509;DHT22;30214;52.246;14.408;2023-04-06T13:04:09;9.30;61.50
44509;DHT22;30214;52.246;14.408;2023-04-06T13:06:36;9.20;61.50
44509;DHT22;30214;52.246;14.408;2023-04-06T13:09:03;9.20;61.60
44509;DHT22;30214;52.246;14.408;2023-04-06T13:11:33;9.10;62.10
44509;DHT22;30214;52.246;14.408;2023-04-06T13:14:00;9.10;61.50
44509;DHT22;30214;52.246;14.408;2023-04-06T13:16:29;9.00;64.80
44509;DHT22;30214;52.246;14.408;2023-04-06T13:18:56;9.00;62.10
44509;DHT22;30214;52.246;14.408;2023-04-06T13:21:23;9.10;61.90
44509;DHT22;30214;52.246;14.408;2023-04-06T13:23:51;9.00;63.20
44509;DHT22;30214;52.246;14.408;2023-04-06T13:26:18;9.20;65.40
44509;DHT22;30214;52.246;14.408;2023-04-06T13:28:45;9.20;61.90
44509;DHT22;30214;52.246;14.408;2023-04-06T13:31:13;9.10;61.40
44509;DHT22;30214;52.246;14.408;2023-04-06T13:33:41;9.20;62.20
44509;DHT22;30214;52.246;14.408;2023-04-06T13:36:08;9.20;61.50
44509;DHT22;30214;52.246;14.408;2023-04-06T13:38:36;9.20;60.20
44509;DHT22;30214;52.246;14.408;2023-04-06T13:41:04;9.30;62.90
44509;DHT22;30214;52.246;14.408;2023-04-06T13:43:33;9.50;59.70
44509;DHT22;30214;52.246;14.408;2023-04-06T13:46:00;9.60;61.90
44509;DHT22;30214;52.246;14.408;2023-04-06T13:48:28;9.60;58.80
44509;DHT22;30214;52.246;14.408;2023-04-06T13:50:57;9.80;58.30
44509;DHT22;30214;52.246;14.408;2023-04-06T13:53:24;9.80;55.50
44509;DHT22;30214;52.246;14.408;2023-04-06T13:55:55;9.70;58.80
44509;DHT22;30214;52.246;14.408;2023-04-06T13:58:23;9.60;58.30
44509;DHT22;30214;52.246;14.408;2023-04-06T14:00:50;9.50;59.80
44509;DHT22;30214;52.246;14.408;2023-04-06T14:03:20;9.50;59.40
44509;DHT22;30214;52.246;14.408;2023-04-06T14:05:48;9.40;60.10
44509;DHT22;30214;52.246;14.408;2023-04-06T14:08:16;9.40;59.80
44509;DHT22;30214;52.246;14.408;2023-04-06T14:10:43;9.30;60.00
44509;DHT22;30214;52.246;14.408;2023-04-06T14:13:11;9.30;61.80
44509;DHT22;30214;52.246;14.408;2023-04-06T14:15:38;9.30;59.70
44509;DHT22;30214;52.246;14.408;2023-04-06T14:18:06;9.30;59.40
44509;DHT22;30214;52.246;14.408;2023-04-06T14:20:34;9.30;62.70
44509;DHT22;30214;52.246;14.408;2023-04-06T14:23:03;9.50;59.20
44509;DHT22;30214;52.246;14.408;2023-04-06T14:25:32;9.50;59.10
44509;DHT22;30214;52.246;14.408;2023-04-06T14:28:00;9.50;56.80
44509;DHT22;30214;52.246;14.408;2023-04-06T14:30:29;9.50;56.40
44509;DHT22;30214;52.246;14.408;2023-04-06T14:32:56;9.40;58.50
44509;DHT22;30214;52.246;14.408;2023-04-06T14:35:24;9.50;58.30
44509;DHT22;30214;52.246;14.408;2023-04-06T14:37:53;9.50;56.90
44509;DHT22;30214;52.246;14.408;2023-04-06T14:40:22;9.40;56.50
44509;DHT22;30214;52.246;14.408;2023-04-06T14:42:50;9.40;55.30
44509;DHT22;30214;52.246;14.408;2023-04-06T14:45:18;9.40;57.10
44509;DHT22;30214;52.246;14.408;2023-04-06T14:47:47;9.50;56.10
44509;DHT22;30214;52.246;14.408;2023-04-06T14:50:14;9.60;56.90
44509;DHT22;30214;52.246;14.408;2023-04-06T14:52:41;9.60;56.40
44509;DHT22;30214;52.246;14.408;2023-04-06T14:55:09;9.60;56.00
44509;DHT22;30214;52.246;14.408;2023-04-06T14:57:36;9.60;56.30
44509;DHT22;30214;52.246;14.408;2023-04-06T15:00:06;9.60;56.50
44509;DHT22;30214;52.246;14.408;2023-04-06T15:02:35;9.60;54.90
44509;DHT22;30214;52.246;14.408;2023-04-06T15:05:02;9.50;54.40
44509;DHT22;30214;52.246;14.408;2023-04-06T15:07:30;9.30;53.60
44509;DHT22;30214;52.246;14.408;2023-04-06T15:09:57;9.30;53.90
44509;DHT22;30214;52.246;14.408;2023-04-06T15:12:24;9.50;54.20
44509;DHT22;30214;52.246;14.408;2023-04-06T15:14:52;9.40;55.30
44509;DHT22;30214;52.246;14.408;2023-04-06T15:17:20;9.50;55.10
44509;DHT22;30214;52.246;14.408;2023-04-06T15:19:47;9.60;56.50
44509;DHT22;30214;52.246;14.408;2023-04-06T15:22:15;9.50;54.20
44509;DHT22;30214;52.246;14.408;2023-04-06T15:24:42;9.50;54.60
44509;DHT22;30214;52.246;14.408;2023-04-06T15:27:10;9.50;54.00
44509;DHT22;30214;52.246;14.408;2023-04-06T15:29:37;9.50;53.80
44509;DHT22;30214;52.246;14.408;2023-04-06T15:32:04;9.50;54.50
44509;DHT22;30214;52.246;14.408;2023-04-06T15:34:33;9.60;54.70
44509;DHT22;30214;52.246;14.408;2023-04-06T15:37:01;9.60;56.30
44509;DHT22;30214;52.246;14.408;2023-04-06T15:39:29;9.60;55.80
44509;DHT22;30214;52.246;14.408;2023-04-06T15:41:56;9.70;57.30
44509;DHT22;30214;52.246;14.408;2023-04-06T15:44:23;9.70;56.30
44509;DHT22;30214;52.246;14.408;2023-04-06T15:46:50;9.90;55.00
44509;DHT22;30214;52.246;14.408;2023-04-06T15:49:18;9.80;54.90
44509;DHT22;30214;52.246;14.408;2023-04-06T15:51:48;9.90;55.40
44509;DHT22;30214;52.246;14.408;2023-04-06T15:54:15;9.90;55.10
44509;DHT22;30214;52.246;14.408;2023-04-06T15:56:44;9.90;55.60